sensor_id;sensor_type;location;lat;lon;timestamp;P1;durP1;ratioP1;P2;durP2;ratioP2
43690;SDS011;29293;52.190;21.226;2022-12-18T00:05:51;59.00;;;24.70;;
43690;SDS011;29293;52.190;21.226;2022-12-18T00:20:59;56.80;;;25.50;;
43690;SDS011;29293;52.190;21.226;2022-12-18T00:36:09;57.30;;;26.40;;
43690;SDS011;29293;52.190;21.226;2022-12-18T00:51:18;56.40;;;25.10;;
43690;SDS011;29293;52.190;21.226;2022-12-18T01:06:25;65.50;;;28.00;;
43690;SDS011;29293;52.190;21.226;2022-12-18T01:21:33;59.60;;;26.70;;
43690;SDS011;29293;52.190;21.226;2022-12-18T01:36:40;58.70;;;26.30;;
43690;SDS011;29293;52.190;21.226;2022-12-18T01:51:47;58.90;;;24.20;;
43690;SDS011;29293;52.190;21.226;2022-12-18T02:06:55;53.30;;;23.10;;
43690;SDS011;29293;52.190;21.226;2022-12-18T02:22:13;47.40;;;20.50;;
43690;SDS011;29293;52.190;21.226;2022-12-18T02:37:32;51.30;;;21.70;;
43690;SDS011;29293;52.190;21.226;2022-12-18T02:52:41;46.10;;;18.80;;
43690;SDS011;29293;52.190;21.226;2022-12-18T03:08:00;41.80;;;17.80;;
43690;SDS011;29293;52.190;21.226;2022-12-18T03:23:11;36.70;;;16.10;;
43690;SDS011;29293;52.190;21.226;2022-12-18T03:38:21;34.90;;;15.00;;
43690;SDS011;29293;52.190;21.226;2022-12-18T03:53:32;38.70;;;16.50;;
43690;SDS011;29293;52.190;21.226;2022-12-18T04:08:43;35.30;;;17.50;;
43690;SDS011;29293;52.190;21.226;2022-12-18T04:23:51;32.60;;;14.60;;
43690;SDS011;29293;52.190;21.226;2022-12-18T04:39:01;33.20;;;14.10;;
43690;SDS011;29293;52.190;21.226;2022-12-18T04:54:09;25.60;;;11.60;;
43690;SDS011;29293;52.190;21.226;2022-12-18T05:09:16;31.30;;;13.40;;
43690;SDS011;29293;52.190;21.226;2022-12-18T05:24:24;26.40;;;11.40;;
43690;SDS011;29293;52.190;21.226;2022-12-18T05:39:34;28.90;;;11.70;;
43690;SDS011;29293;52.190;21.226;2022-12-18T05:54:44;29.70;;;12.40;;
43690;SDS011;29293;52.190;21.226;2022-12-18T06:09:52;31.40;;;12.20;;
43690;SDS011;29293;52.190;21.226;2022-12-18T06:25:00;32.40;;;13.40;;
43690;SDS011;29293;52.190;21.226;2022-12-18T06:40:10;32.20;;;13.80;;
43690;SDS011;29293;52.190;21.226;2022-12-18T06:55:18;29.90;;;13.80;;
43690;SDS011;29293;52.190;21.226;2022-12-18T07:10:25;30.10;;;13.40;;
43690;SDS011;29293;52.190;21.226;2022-12-18T07:25:34;41.80;;;17.30;;
43690;SDS011;29293;52.190;21.226;2022-12-18T07:40:42;46.60;;;19.30;;
43690;SDS011;29293;52.190;21.226;2022-12-18T07:55:54;52.80;;;20.10;;
43690;SDS011;29293;52.190;21.226;2022-12-18T08:11:04;45.30;;;18.60;;
43690;SDS011;29293;52.190;21.226;2022-12-18T08:26:11;52.30;;;19.70;;
43690;SDS011;29293;52.190;21.226;2022-12-18T08:41:20;75.80;;;24.60;;
43690;SDS011;29293;52.190;21.226;2022-12-18T08:56:28;84.30;;;27.40;;
43690;SDS011;29293;52.190;21.226;2022-12-18T09:11:36;76.90;;;26.60;;
43690;SDS011;29293;52.190;21.226;2022-12-18T09:26:43;81.40;;;28.60;;
43690;SDS011;29293;52.190;21.226;2022-12-18T09:41:52;80.60;;;29.60;;
43690;SDS011;29293;52.190;21.226;2022-12-18T09:57:04;75.50;;;28.40;;
43690;SDS011;29293;52.190;21.226;2022-12-18T10:12:12;80.10;;;28.10;;
43690;SDS011;29293;52.190;21.226;2022-12-18T10:27:27;47.70;;;18.30;;
43690;SDS011;29293;52.190;21.226;2022-12-18T10:42:36;70.20;;;26.50;;
43690;SDS011;29293;52.190;21.226;2022-12-18T10:57:46;66.00;;;27.20;;
43690;SDS011;29293;52.190;21.226;2022-12-18T11:12:55;65.70;;;26.80;;
43690;SDS011;29293;52.190;21.226;2022-12-18T11:28:26;66.00;;;27.80;;
43690;SDS011;29293;52.190;21.226;2022-12-18T11:43:41;75.20;;;31.60;;
43690;SDS011;29293;52.190;21.226;2022-12-18T11:58:57;74.90;;;28.70;;
43690;SDS011;29293;52.190;21.226;2022-12-18T12:14:25;85.90;;;32.20;;
43690;SDS011;29293;52.190;21.226;2022-12-18T12:29:46;88.90;;;33.20;;
43690;SDS011;29293;52.190;21.226;2022-12-18T12:45:05;74.40;;;28.70;;
43690;SDS011;29293;52.190;21.226;2022-12-18T13:00:22;89.90;;;33.40;;
43690;SDS011;29293;52.190;21.226;2022-12-18T13:15:33;95.20;;;33.20;;
43690;SDS011;29293;52.190;21.226;2022-12-18T13:30:55;80.00;;;29.10;;
43690;SDS011;29293;52.190;21.226;2022-12-18T13:46:05;84.90;;;30.10;;
43690;SDS011;29293;52.190;21.226;2022-12-18T14:01:28;77.20;;;29.40;;
43690;SDS011;29293;52.190;21.226;2022-12-18T14:16:35;78.00;;;28.50;;
43690;SDS011;29293;52.190;21.226;2022-12-18T14:31:46;73.30;;;28.40;;
43690;SDS011;29293;52.190;21.226;2022-12-18T14:47:13;86.00;;;31.40;;
43690;SDS011;29293;52.190;21.226;2022-12-18T15:02:23;75.50;;;27.70;;
43690;SDS011;29293;52.190;21.226;2022-12-18T15:17:33;79.00;;;28.40;;
43690;SDS011;29293;52.190;21.226;2022-12-18T15:32:40;73.50;;;27.80;;
43690;SDS011;29293;52.190;21.226;2022-12-18T15:47:48;71.50;;;27.30;;
43690;SDS011;29293;52.190;21.226;2022-12-18T16:02:56;77.50;;;28.80;;
43690;SDS011;29293;52.190;21.226;2022-12-18T16:18:04;75.50;;;28.00;;
43690;SDS011;29293;52.190;21.226;2022-12-18T16:33:11;76.00;;;27.40;;
43690;SDS011;29293;52.190;21.226;2022-12-18T16:48:20;66.10;;;24.70;;
43690;SDS011;29293;52.190;21.226;2022-12-18T17:03:27;65.80;;;24.60;;
43690;SDS011;29293;52.190;21.226;2022-12-18T17:18:35;72.90;;;26.30;;
43690;SDS011;29293;52.190;21.226;2022-12-18T17:33:42;66.90;;;24.40;;
43690;SDS011;29293;52.190;21.226;2022-12-18T17:48:50;56.10;;;22.40;;
43690;SDS011;29293;52.190;21.226;2022-12-18T18:04:00;66.10;;;23.60;;
43690;SDS011;29293;52.190;21.226;2022-12-18T18:19:09;56.30;;;21.20;;
43690;SDS011;29293;52.190;21.226;2022-12-18T18:34:19;73.80;;;25.50;;
43690;SDS011;29293;52.190;21.226;2022-12-18T18:49:27;71.40;;;28.00;;
43690;SDS011;29293;52.190;21.226;2022-12-18T19:04:35;48.40;;;18.80;;
43690;SDS011;29293;52.190;21.226;2022-12-18T19:19:43;56.90;;;20.50;;
43690;SDS011;29293;52.190;21.226;2022-12-18T19:34:50;59.90;;;23.70;;
43690;SDS011;29293;52.190;21.226;2022-12-18T19:49:58;63.30;;;24.30;;
43690;SDS011;29293;52.190;21.226;2022-12-18T20:05:08;38.30;;;14.10;;
43690;SDS011;29293;52.190;21.226;2022-12-18T20:20:17;54.50;;;21.30;;
43690;SDS011;29293;52.190;21.226;2022-12-18T20:35:24;55.70;;;21.40;;
43690;SDS011;29293;52.190;21.226;2022-12-18T20:50:34;54.90;;;19.50;;
43690;SDS011;29293;52.190;21.226;2022-12-18T21:05:41;48.20;;;18.60;;
43690;SDS011;29293;52.190;21.226;2022-12-18T21:20:48;52.50;;;19.00;;
43690;SDS011;29293;52.190;21.226;2022-12-18T21:35:56;42.30;;;16.40;;
43690;SDS011;29293;52.190;21.226;2022-12-18T21:51:03;46.20;;;17.30;;
43690;SDS011;29293;52.190;21.226;2022-12-18T22:06:11;44.70;;;16.50;;
43690;SDS011;29293;52.190;21.226;2022-12-18T22:21:21;48.60;;;17.20;;
43690;SDS011;29293;52.190;21.226;2022-12-18T22:36:34;39.40;;;14.50;;
43690;SDS011;29293;52.190;21.226;2022-12-18T22:51:43;39.60;;;15.10;;
43690;SDS011;29293;52.190;21.226;2022-12-18T23:06:51;43.40;;;17.10;;
43690;SDS011;29293;52.190;21.226;2022-12-18T23:21:58;37.00;;;15.50;;
43690;SDS011;29293;52.190;21.226;2022-12-18T23:37:06;30.70;;;11.10;;
43690;SDS011;29293;52.190;21.226;2022-12-18T23:52:14;28.00;;;11.40;;
